Time;durP1;ratioP1;P1;durP2;ratioP2;P2;SDS_P1;SDS_P2;PMS_P1;PMS_P2;Temp;Humidity;BMP_temperature;BMP_pressure;BME280_temperature;BME280_humidity;BME280_pressure;Samples;Min_cycle;Max_cycle;Signal;HPM_P1;HPM_P2
2023/12/08 00:00:20;;;;;;;12.60;8.27;;;;;;;0.72;100.00;92300.59;2124877;27;20023;-79
2023/12/08 00:01:21;;;;;;;11.43;8.10;;;;;;;0.76;100.00;92301.38;2129883;27;20022;-78
2023/12/08 00:02:22;;;;;;;10.77;7.63;;;;;;;0.89;100.00;92301.75;2125292;27;20030;-80
2023/12/08 00:03:23;;;;;;;12.25;8.00;;;;;;;0.84;100.00;92308.16;2126913;27;20445;-79
2023/12/08 00:04:24;;;;;;;13.95;9.48;;;;;;;0.75;100.00;92300.63;2128483;27;20095;-79
2023/12/08 00:05:25;;;;;;;11.25;7.82;;;;;;;0.82;100.00;92294.59;2122180;27;20436;-80
2023/12/08 00:06:26;;;;;;;13.05;8.55;;;;;;;0.90;100.00;92296.13;2127892;27;20015;-77
2023/12/08 00:07:27;;;;;;;11.82;8.70;;;;;;;0.83;100.00;92298.72;2127661;27;20035;-78
2023/12/08 00:08:27;;;;;;;12.20;8.80;;;;;;;0.72;100.00;92305.88;2127569;27;20019;-82
2023/12/08 00:09:29;;;;;;;12.25;8.23;;;;;;;0.77;100.00;92297.59;2114281;28;20020;-79
2023/12/08 00:10:30;;;;;;;11.93;8.18;;;;;;;0.85;100.00;92293.13;2118868;27;20498;-80
2023/12/08 00:11:31;;;;;;;13.52;8.15;;;;;;;0.96;100.00;92288.59;2123070;27;20031;-76
2023/12/08 00:12:32;;;;;;;12.60;8.60;;;;;;;0.94;100.00;92294.25;2118189;27;20515;-78
2023/12/08 00:13:34;;;;;;;11.63;8.00;;;;;;;0.71;100.00;92288.59;2126675;27;20022;-77
2023/12/08 00:14:35;;;;;;;12.25;8.32;;;;;;;0.84;100.00;92287.09;2123405;27;20471;-77
2023/12/08 00:15:36;;;;;;;12.48;8.32;;;;;;;0.85;100.00;92285.97;2131166;27;20026;-79
2023/12/08 00:16:37;;;;;;;12.65;8.52;;;;;;;0.90;100.00;92284.84;2131703;27;20733;-79
2023/12/08 00:17:38;;;;;;;12.27;8.48;;;;;;;0.86;100.00;92282.22;2130510;27;20057;-81
2023/12/08 00:18:39;;;;;;;14.65;8.80;;;;;;;0.92;100.00;92285.22;2129446;27;20019;-75
2023/12/08 00:19:40;;;;;;;13.30;9.00;;;;;;;0.82;100.00;92281.44;2123526;27;20019;-79
2023/12/08 00:20:41;;;;;;;12.52;8.75;;;;;;;0.83;100.00;92285.56;2120936;27;20075;-78
2023/12/08 00:21:42;;;;;;;12.15;7.90;;;;;;;0.67;100.00;92291.22;2132606;27;20079;-77
2023/12/08 00:22:43;;;;;;;13.57;9.07;;;;;;;0.78;100.00;92280.69;2132741;27;20022;-79
2023/12/08 00:23:44;;;;;;;12.23;8.23;;;;;;;0.89;100.00;92278.09;2126349;27;20308;-77
2023/12/08 00:24:45;;;;;;;16.00;8.90;;;;;;;0.79;100.00;92276.97;2126649;27;20407;-77
2023/12/08 00:25:46;;;;;;;13.32;8.38;;;;;;;0.77;100.00;92276.56;2127211;27;20015;-79
2023/12/08 00:26:47;;;;;;;11.95;9.02;;;;;;;0.85;100.00;92272.81;2110177;28;20028;-78
2023/12/08 00:27:48;;;;;;;14.55;8.98;;;;;;;0.73;100.00;92281.81;2110542;28;20106;-76
2023/12/08 00:28:49;;;;;;;12.07;8.52;;;;;;;0.73;100.00;92273.91;2110973;28;20026;-81
2023/12/08 00:29:50;;;;;;;12.85;8.82;;;;;;;0.72;100.00;92280.31;2112793;28;20019;-78
2023/12/08 00:30:51;;;;;;;12.27;8.90;;;;;;;0.78;100.00;92275.44;2112220;28;20028;-77
2023/12/08 00:31:52;;;;;;;14.88;9.75;;;;;;;0.84;100.00;92270.56;2110061;28;20030;-79
2023/12/08 00:32:53;;;;;;;14.60;9.25;;;;;;;0.74;100.00;92274.66;2110981;28;20030;-82
2023/12/08 00:33:54;;;;;;;14.32;9.73;;;;;;;0.68;100.00;92276.19;2107012;28;20028;-80
2023/12/08 00:34:55;;;;;;;13.43;8.40;;;;;;;0.69;100.00;92273.16;2106324;28;20434;-79
2023/12/08 00:35:56;;;;;;;14.82;9.35;;;;;;;0.71;100.00;92270.94;2106281;28;20031;-79
2023/12/08 00:36:57;;;;;;;12.82;9.15;;;;;;;0.75;100.00;92268.31;2107166;28;20024;-79
2023/12/08 00:37:58;;;;;;;15.32;9.93;;;;;;;0.67;100.00;92267.53;2106666;28;20456;-82
2023/12/08 00:38:59;;;;;;;15.30;9.48;;;;;;;0.89;100.00;92267.56;2109956;28;20027;-78
2023/12/08 00:40:00;;;;;;;14.57;9.48;;;;;;;0.78;100.00;92269.41;2115099;28;20023;-77
2023/12/08 00:41:01;;;;;;;14.32;9.23;;;;;;;0.70;100.00;92279.16;2114841;28;20035;-76
2023/12/08 00:42:03;;;;;;;15.30;9.27;;;;;;;0.78;100.00;92262.28;2106422;28;20477;-78
2023/12/08 00:43:04;;;;;;;15.13;9.93;;;;;;;0.83;100.00;92274.31;2106508;28;20044;-80
2023/12/08 00:44:05;;;;;;;13.77;9.40;;;;;;;0.65;100.00;92266.41;2114775;28;20035;-82
2023/12/08 00:45:08;;;;;;;12.30;8.70;;;;;;;0.67;100.00;92264.91;2114851;28;20027;-78
2023/12/08 00:46:12;;;;;;;12.88;9.20;;;;;;;0.79;100.00;92258.53;2114749;28;20076;-82
2023/12/08 00:47:13;;;;;;;12.13;8.25;;;;;;;0.82;100.00;92267.53;2106503;28;20028;-80
2023/12/08 00:48:13;;;;;;;13.45;8.98;;;;;;;0.87;100.00;92270.56;2113473;28;20023;-81
2023/12/08 00:49:14;;;;;;;12.93;8.63;;;;;;;0.85;100.00;92261.53;2115258;28;20053;-79
2023/12/08 00:50:16;;;;;;;13.73;9.15;;;;;;;0.77;100.00;92262.66;2115304;28;20684;-77
2023/12/08 00:51:16;;;;;;;15.43;9.25;;;;;;;0.76;100.00;92272.44;2115431;28;20111;-79
2023/12/08 00:52:18;;;;;;;11.85;8.25;;;;;;;0.70;100.00;92266.81;2115245;28;20020;-79
2023/12/08 00:53:19;;;;;;;13.95;8.82;;;;;;;0.67;100.00;92262.28;2105805;28;20035;-77
2023/12/08 00:54:21;;;;;;;12.80;9.05;;;;;;;0.67;100.00;92258.91;2096548;28;20123;-77
2023/12/08 00:55:21;;;;;;;13.57;8.95;;;;;;;0.72;100.00;92263.78;2105713;28;20508;-79
2023/12/08 00:56:23;;;;;;;14.93;8.95;;;;;;;0.72;100.00;92259.28;2109977;28;20032;-79
2023/12/08 00:57:24;;;;;;;14.63;9.25;;;;;;;0.69;100.00;92261.91;2106677;28;20120;-78
2023/12/08 00:58:25;;;;;;;13.48;8.82;;;;;;;0.73;100.00;92257.41;2112297;28;20026;-82
2023/12/08 00:59:26;;;;;;;16.42;10.10;;;;;;;0.61;100.00;92252.50;2114477;28;20499;-77
2023/12/08 01:00:27;;;;;;;13.70;9.00;;;;;;;0.72;100.00;92253.25;2110417;28;20103;-80
2023/12/08 01:01:28;;;;;;;12.25;8.45;;;;;;;0.53;100.00;92254.38;2104252;28;20035;-78
2023/12/08 01:02:29;;;;;;;15.52;8.55;;;;;;;0.72;100.00;92248.75;2113989;28;20023;-77
2023/12/08 01:03:30;;;;;;;11.75;8.45;;;;;;;0.75;100.00;92258.53;2108415;28;20703;-78
2023/12/08 01:04:31;;;;;;;13.13;8.63;;;;;;;0.65;100.00;92259.25;2106770;28;20020;-81
2023/12/08 01:05:32;;;;;;;13.38;8.50;;;;;;;0.67;100.00;92258.91;2114751;28;20052;-82
2023/12/08 01:06:33;;;;;;;11.35;8.13;;;;;;;0.72;100.00;92259.28;2113991;28;20547;-80
2023/12/08 01:07:34;;;;;;;13.23;8.93;;;;;;;0.82;100.00;92254.41;2113987;28;20415;-80
2023/12/08 01:08:35;;;;;;;14.77;8.98;;;;;;;0.89;100.00;92251.78;2110067;28;20070;-77
2023/12/08 01:09:36;;;;;;;12.82;8.38;;;;;;;0.79;100.00;92253.28;2106228;28;20069;-77
2023/12/08 01:10:37;;;;;;;11.85;8.68;;;;;;;0.75;100.00;92253.28;2106997;28;20028;-81
2023/12/08 01:11:43;;;;;;;13.07;9.07;;;;;;;0.83;100.00;92255.91;2115351;28;20388;-79
2023/12/08 01:12:44;;;;;;;13.52;8.30;;;;;;;0.72;100.00;92261.91;2114723;28;20035;-82
2023/12/08 01:13:45;;;;;;;12.90;8.55;;;;;;;0.80;100.00;92260.03;2115096;28;20551;-81
2023/12/08 01:14:46;;;;;;;13.00;9.25;;;;;;;0.65;100.00;92253.25;2114295;28;20023;-79
2023/12/08 01:15:47;;;;;;;14.10;9.20;;;;;;;0.61;100.00;92247.97;2114605;28;20043;-80
2023/12/08 01:16:48;;;;;;;13.43;9.77;;;;;;;0.70;100.00;92253.66;2114644;28;20027;-79
2023/12/08 01:17:50;;;;;;;14.10;9.35;;;;;;;0.69;100.00;92259.25;2104673;28;20115;-79
2023/12/08 01:18:50;;;;;;;15.73;10.02;;;;;;;0.91;100.00;92250.25;2106244;28;20020;-79
2023/12/08 01:19:55;;;;;;;15.20;9.65;;;;;;;0.80;100.00;92243.50;2114377;28;20376;-81
2023/12/08 01:20:56;;;;;;;13.50;9.23;;;;;;;0.90;100.00;92248.75;2114494;28;20824;-78
2023/12/08 01:21:58;;;;;;;12.95;8.80;;;;;;;0.90;100.00;92250.66;2114590;28;20507;-80
2023/12/08 01:22:59;;;;;;;12.70;8.65;;;;;;;0.78;100.00;92248.38;2113777;28;20023;-81
2023/12/08 01:23:59;;;;;;;14.18;9.43;;;;;;;0.71;100.00;92249.13;2121631;27;20101;-77
2023/12/08 01:25:01;;;;;;;13.88;9.25;;;;;;;0.61;100.00;92245.34;2107207;28;20036;-79
2023/12/08 01:26:05;;;;;;;13.38;9.02;;;;;;;0.69;100.00;92238.22;2110259;27;20055;-79
2023/12/08 01:27:06;;;;;;;15.90;9.60;;;;;;;0.73;100.00;92242.38;2123767;27;20026;-77
2023/12/08 01:28:07;;;;;;;17.23;9.50;;;;;;;0.72;100.00;92235.59;2126570;27;20030;-78
2023/12/08 01:29:08;;;;;;;15.65;9.95;;;;;;;0.60;100.00;92235.97;2125606;27;20079;-78
2023/12/08 01:30:10;;;;;;;13.45;9.20;;;;;;;0.61;100.00;92239.34;2122033;27;20019;-77
2023/12/08 01:31:12;;;;;;;14.73;9.25;;;;;;;0.65;100.00;92232.97;2128100;27;20026;-80
2023/12/08 01:32:13;;;;;;;14.52;9.38;;;;;;;0.65;100.00;92232.97;2129407;27;20054;-77
2023/12/08 01:33:14;;;;;;;13.63;8.95;;;;;;;0.58;100.00;92242.75;2127711;27;20543;-80
2023/12/08 01:34:15;;;;;;;13.38;9.13;;;;;;;0.68;100.00;92234.09;2131399;27;20027;-81
2023/12/08 01:35:16;;;;;;;14.45;8.98;;;;;;;0.53;100.00;92237.81;2131995;27;20813;-80
2023/12/08 01:36:17;;;;;;;12.02;8.43;;;;;;;0.54;100.00;92239.34;2131393;27;20052;-79
2023/12/08 01:37:18;;;;;;;13.93;9.13;;;;;;;0.50;100.00;92241.97;2131008;27;20021;-80
2023/12/08 01:38:19;;;;;;;13.55;9.25;;;;;;;0.57;100.00;92228.06;2115736;27;20080;-80
2023/12/08 01:39:20;;;;;;;15.18;9.75;;;;;;;0.53;100.00;92238.59;2105929;28;20693;-81
2023/12/08 01:40:26;;;;;;;14.27;9.23;;;;;;;0.59;100.00;92231.09;2114277;28;20480;-81
2023/12/08 01:41:30;;;;;;;14.38;8.90;;;;;;;0.53;100.00;92232.56;2131080;27;20674;-80
2023/12/08 01:42:31;;;;;;;13.32;8.80;;;;;;;0.74;100.00;92235.22;2125614;27;20069;-78
2023/12/08 01:43:32;;;;;;;12.63;9.10;;;;;;;0.70;100.00;92237.09;2122811;27;20023;-77
2023/12/08 01:44:33;;;;;;;13.88;9.73;;;;;;;0.64;100.00;92235.97;2131269;27;20077;-79
2023/12/08 01:45:34;;;;;;;12.75;8.90;;;;;;;0.65;100.00;92226.94;2114416;27;20441;-80
2023/12/08 01:46:37;;;;;;;14.35;9.32;;;;;;;0.62;100.00;92227.72;2118189;27;20022;-77
2023/12/08 01:47:43;;;;;;;13.30;8.85;;;;;;;0.63;100.00;92234.47;2122915;27;20384;-77
2023/12/08 01:48:46;;;;;;;11.85;8.40;;;;;;;0.65;100.00;92240.09;2123393;27;20027;-78
2023/12/08 01:49:47;;;;;;;12.98;9.32;;;;;;;0.64;100.00;92244.59;2124999;27;20015;-80
2023/12/08 01:50:48;;;;;;;13.25;8.25;;;;;;;0.67;100.00;92241.25;2131337;27;20367;-81
2023/12/08 01:51:50;;;;;;;13.38;8.32;;;;;;;0.64;100.00;92234.09;2114583;27;20068;-76
2023/12/08 01:52:52;;;;;;;12.63;9.00;;;;;;;0.69;100.00;92238.97;2121955;27;20023;-79
2023/12/08 01:53:53;;;;;;;11.60;8.63;;;;;;;0.58;100.00;92243.50;2123925;27;20138;-78
2023/12/08 01:54:57;;;;;;;13.98;8.85;;;;;;;0.66;100.00;92245.00;2124529;27;20415;-79
2023/12/08 01:55:59;;;;;;;13.13;9.02;;;;;;;0.62;100.00;92251.38;2124955;27;20031;-77
2023/12/08 01:57:01;;;;;;;14.30;9.02;;;;;;;0.58;100.00;92240.09;2123604;27;20051;-79
2023/12/08 01:58:03;;;;;;;13.38;9.00;;;;;;;0.57;100.00;92241.22;2117416;27;20074;-79
2023/12/08 01:59:04;;;;;;;12.57;9.05;;;;;;;0.53;100.00;92243.88;2125880;27;20082;-83
2023/12/08 02:00:08;;;;;;;13.65;9.52;;;;;;;0.38;100.00;92244.94;2130015;27;20385;-76
2023/12/08 02:01:10;;;;;;;17.48;9.43;;;;;;;0.47;100.00;92245.34;2126920;27;20026;-78
2023/12/08 02:02:12;;;;;;;14.75;9.73;;;;;;;0.67;100.00;92249.13;2126741;27;20051;-81
2023/12/08 02:03:14;;;;;;;12.57;8.65;;;;;;;0.46;100.00;92254.34;2125731;27;20026;-81
2023/12/08 02:04:16;;;;;;;13.20;8.80;;;;;;;0.53;100.00;92250.97;2128599;27;20653;-80
2023/12/08 02:05:18;;;;;;;14.15;9.10;;;;;;;0.61;100.00;92237.47;2124765;27;20090;-82
2023/12/08 02:06:19;;;;;;;14.88;10.02;;;;;;;0.65;100.00;92253.25;2113723;28;20042;-77
2023/12/08 02:07:21;;;;;;;14.23;9.25;;;;;;;0.54;100.00;92250.63;2124554;27;20494;-80
2023/12/08 02:08:22;;;;;;;18.45;9.52;;;;;;;0.36;100.00;92247.97;2130906;27;20026;-79
2023/12/08 02:09:23;;;;;;;13.75;9.50;;;;;;;0.31;100.00;92244.91;2131189;27;20532;-80
2023/12/08 02:10:24;;;;;;;14.48;9.57;;;;;;;0.40;100.00;92246.09;2131136;27;20764;-79
2023/12/08 02:11:25;;;;;;;15.73;10.32;;;;;;;0.39;100.00;92247.19;2131281;27;20050;-78
2023/12/08 02:12:26;;;;;;;17.25;10.65;;;;;;;0.64;100.00;92249.13;2131373;27;20018;-77
2023/12/08 02:13:27;;;;;;;15.55;10.75;;;;;;;0.66;100.00;92241.59;2130753;27;20125;-78
2023/12/08 02:14:28;;;;;;;17.13;10.55;;;;;;;0.64;100.00;92246.50;2131348;27;20436;-83
2023/12/08 02:15:29;;;;;;;18.33;10.63;;;;;;;0.60;100.00;92243.84;2123695;27;20027;-81
2023/12/08 02:16:45;;;;;;;17.98;10.85;;;;;;;0.55;100.00;92238.97;2123014;27;20448;-79
2023/12/08 02:17:47;;;;;;;13.50;9.73;;;;;;;0.73;100.00;92242.38;2121927;27;20023;-79
2023/12/08 02:18:48;;;;;;;16.10;10.30;;;;;;;0.77;100.00;92246.88;2113814;28;20373;-79
2023/12/08 02:19:51;;;;;;;17.52;10.68;;;;;;;0.57;100.00;92244.63;2113951;28;20047;-79
2023/12/08 02:20:52;;;;;;;18.25;11.23;;;;;;;0.69;100.00;92246.13;2122259;27;20030;-78
2023/12/08 02:21:53;;;;;;;14.90;10.27;;;;;;;0.60;100.00;92254.38;2129420;27;20043;-79
2023/12/08 02:24:48;;;;;;;13.80;10.00;;;;;;;-0.18;100.00;92257.53;2135739;27;20169;-79
2023/12/08 02:25:48;;;;;;;15.63;9.77;;;;;;;-0.06;100.00;92246.69;2130410;27;20083;-80
2023/12/08 02:26:50;;;;;;;15.98;9.82;;;;;;;-0.13;100.00;92246.69;2129802;27;20106;-81
2023/12/08 02:27:51;;;;;;;14.82;10.32;;;;;;;-0.07;100.00;92245.19;2128743;27;20027;-78
2023/12/08 02:28:52;;;;;;;14.82;10.18;;;;;;;0.01;100.00;92250.50;2129774;27;20019;-78
2023/12/08 02:29:54;;;;;;;13.98;9.90;;;;;;;-0.02;100.00;92239.59;2129104;27;20029;-78
2023/12/08 02:30:56;;;;;;;15.48;10.55;;;;;;;-0.08;100.00;92240.31;2130162;27;20022;-79
2023/12/08 02:32:11;;;;;;;16.50;10.43;;;;;;;-0.01;100.00;92248.22;2128712;27;20503;-79
2023/12/08 02:33:17;;;;;;;14.70;9.77;;;;;;;-0.03;100.00;92250.47;2127848;27;20522;-82
2023/12/08 02:34:21;;;;;;;14.15;9.98;;;;;;;0.09;100.00;92252.00;2127768;27;20451;-80
2023/12/08 02:35:23;;;;;;;17.75;11.13;;;;;;;0.11;100.00;92258.38;2121194;28;20019;-83
2023/12/08 02:36:35;;;;;;;15.70;10.32;;;;;;;0.02;100.00;92257.25;2121703;27;20115;-81
2023/12/08 02:37:43;;;;;;;17.98;10.25;;;;;;;0.00;100.00;92255.00;2120534;28;20524;-79
2023/12/08 02:38:47;;;;;;;14.27;9.30;;;;;;;-0.04;100.00;92252.34;2113277;28;20499;-83
2023/12/08 02:39:49;;;;;;;11.98;8.93;;;;;;;0.00;100.00;92255.00;2112899;28;20046;-80
2023/12/08 02:40:50;;;;;;;15.60;10.13;;;;;;;0.01;100.00;92253.88;2112672;28;20020;-80
2023/12/08 02:41:51;;;;;;;13.55;9.10;;;;;;;0.04;100.00;92253.09;2107777;28;20023;-80
2023/12/08 02:42:53;;;;;;;15.85;10.07;;;;;;;0.11;100.00;92252.38;2112055;27;20047;-80
2023/12/08 02:43:54;;;;;;;14.18;9.10;;;;;;;0.07;100.00;92249.75;2121147;27;20011;-81
2023/12/08 02:44:55;;;;;;;15.15;9.77;;;;;;;0.04;100.00;92250.47;2129297;27;20037;-80
2023/12/08 02:45:56;;;;;;;15.18;10.30;;;;;;;-0.01;100.00;92253.47;2129187;27;20113;-78
2023/12/08 02:46:57;;;;;;;15.05;9.63;;;;;;;-0.17;100.00;92263.56;2129393;27;20019;-79
2023/12/08 02:47:58;;;;;;;18.05;10.85;;;;;;;-0.11;100.00;92273.31;2128771;27;20026;-79
2023/12/08 02:48:59;;;;;;;15.32;10.00;;;;;;;-0.08;100.00;92275.22;2129610;27;20023;-80
2023/12/08 02:50:00;;;;;;;17.83;10.57;;;;;;;0.00;100.00;92262.88;2129566;27;20444;-79
2023/12/08 02:51:03;;;;;;;15.45;10.48;;;;;;;-0.02;100.00;92255.34;2130149;27;20469;-81
2023/12/08 02:52:04;;;;;;;13.15;9.23;;;;;;;-0.01;100.00;92258.72;2125311;27;20019;-78
2023/12/08 02:53:05;;;;;;;14.30;9.20;;;;;;;-0.02;100.00;92252.72;2120347;28;20037;-78
2023/12/08 02:54:06;;;;;;;15.95;10.48;;;;;;;-0.10;100.00;92242.56;2112699;28;20416;-80
2023/12/08 02:55:07;;;;;;;13.68;9.32;;;;;;;-0.06;100.00;92246.69;2127981;27;20037;-83
2023/12/08 02:56:08;;;;;;;15.88;10.15;;;;;;;-0.10;100.00;92242.56;2129253;27;20015;-78
2023/12/08 02:57:09;;;;;;;13.65;9.57;;;;;;;-0.12;100.00;92242.19;2127756;27;20023;-79
2023/12/08 02:58:10;;;;;;;16.38;9.77;;;;;;;0.07;100.00;92238.50;2128852;27;20111;-82
2023/12/08 02:59:11;;;;;;;12.55;8.93;;;;;;;0.02;100.00;92239.59;2120642;27;20076;-78
2023/12/08 03:00:13;;;;;;;12.57;9.07;;;;;;;-0.09;100.00;92234.31;2121148;28;20020;-78
2023/12/08 03:01:14;;;;;;;15.07;9.38;;;;;;;0.05;100.00;92227.59;2129157;27;20023;-79
2023/12/08 03:02:15;;;;;;;16.00;9.60;;;;;;;0.02;100.00;92223.84;2129256;27;20060;-77
2023/12/08 03:03:16;;;;;;;14.55;9.43;;;;;;;0.01;100.00;92227.59;2126797;27;20027;-78
2023/12/08 03:04:17;;;;;;;14.13;9.27;;;;;;;0.02;100.00;92229.09;2112316;28;20035;-79
2023/12/08 03:05:18;;;;;;;15.82;9.93;;;;;;;0.10;100.00;92225.38;2112122;28;20091;-80
2023/12/08 03:06:19;;;;;;;16.33;9.95;;;;;;;-0.03;100.00;92229.47;2119968;28;20594;-83
2023/12/08 03:07:20;;;;;;;15.55;8.85;;;;;;;0.00;100.00;92231.34;2120879;27;20050;-79
2023/12/08 03:08:21;;;;;;;13.43;9.50;;;;;;;0.05;100.00;92233.63;2120349;28;20557;-79
2023/12/08 03:09:22;;;;;;;15.32;9.57;;;;;;;0.02;100.00;92242.22;2112647;28;20019;-80
2023/12/08 03:10:24;;;;;;;14.30;8.98;;;;;;;-0.04;100.00;92241.84;2112173;28;20024;-80
2023/12/08 03:11:24;;;;;;;12.52;8.73;;;;;;;-0.05;100.00;92234.31;2121032;28;20597;-77
2023/12/08 03:12:26;;;;;;;14.05;8.98;;;;;;;-0.13;100.00;92244.06;2120631;28;20478;-80
2023/12/08 03:13:27;;;;;;;14.13;8.70;;;;;;;-0.10;100.00;92243.31;2112211;28;20038;-77
2023/12/08 03:14:28;;;;;;;13.43;9.38;;;;;;;-0.08;100.00;92253.47;2112509;28;20376;-79
2023/12/08 03:15:29;;;;;;;14.75;9.98;;;;;;;-0.08;100.00;92250.84;2112485;28;20035;-80
2023/12/08 03:16:34;;;;;;;14.88;10.02;;;;;;;-0.08;100.00;92254.19;2120795;27;20109;-77
2023/12/08 03:17:36;;;;;;;14.45;10.15;;;;;;;0.05;100.00;92256.50;2129476;27;20049;-80
2023/12/08 03:18:37;;;;;;;16.15;10.57;;;;;;;-0.08;100.00;92254.19;2128839;27;20030;-82
2023/12/08 03:19:38;;;;;;;14.98;9.73;;;;;;;0.04;100.00;92254.97;2124663;27;20022;-80
2023/12/08 03:20:39;;;;;;;13.52;9.48;;;;;;;-0.10;100.00;92253.81;2121573;27;20057;-79
2023/12/08 03:21:40;;;;;;;12.68;9.32;;;;;;;-0.07;100.00;92255.69;2120724;28;20023;-80
2023/12/08 03:22:40;;;;;;;13.27;9.52;;;;;;;-0.11;100.00;92256.81;2120198;28;20027;-82
2023/12/08 03:23:41;;;;;;;14.15;10.02;;;;;;;-0.13;100.00;92253.78;2126107;27;20045;-80
2023/12/08 03:24:42;;;;;;;15.32;9.23;;;;;;;0.15;100.00;92264.41;2119413;27;20047;-79
2023/12/08 03:25:43;;;;;;;14.23;9.23;;;;;;;0.24;100.00;92258.81;2113850;28;20046;-80
2023/12/08 03:26:44;;;;;;;14.52;9.27;;;;;;;0.13;100.00;92264.03;2120348;28;20038;-81
2023/12/08 03:27:45;;;;;;;13.00;9.23;;;;;;;0.14;100.00;92265.53;2115173;27;20023;-79
2023/12/08 03:28:48;;;;;;;13.73;8.70;;;;;;;0.29;100.00;92266.31;2116642;28;20034;-77
2023/12/08 03:29:49;;;;;;;12.75;8.68;;;;;;;0.29;100.00;92271.59;2118977;27;20463;-79
2023/12/08 03:30:50;;;;;;;11.02;8.30;;;;;;;0.17;100.00;92271.91;2114181;28;20035;-80
2023/12/08 03:31:51;;;;;;;11.50;8.57;;;;;;;0.19;100.00;92275.69;2117577;28;20027;-82
2023/12/08 03:32:52;;;;;;;11.77;7.93;;;;;;;0.09;100.00;92273.00;2119792;27;20031;-80
2023/12/08 03:33:53;;;;;;;13.40;8.88;;;;;;;0.07;100.00;92275.25;2123012;27;20027;-79
2023/12/08 03:34:54;;;;;;;12.65;8.15;;;;;;;0.17;100.00;92277.16;2129167;27;20123;-79
2023/12/08 03:35:55;;;;;;;11.95;8.27;;;;;;;0.15;100.00;92282.81;2121446;27;20027;-80
2023/12/08 03:36:56;;;;;;;11.85;7.85;;;;;;;0.24;100.00;92274.56;2115403;28;20059;-82
2023/12/08 03:37:57;;;;;;;13.95;8.40;;;;;;;0.38;100.00;92277.25;2115156;28;20061;-80
2023/12/08 03:38:58;;;;;;;12.38;8.48;;;;;;;0.34;100.00;92270.47;2115693;28;20020;-78
2023/12/08 03:39:59;;;;;;;11.95;8.52;;;;;;;0.21;100.00;92267.44;2115707;28;20027;-80
2023/12/08 03:40:59;;;;;;;14.60;8.70;;;;;;;0.13;100.00;92282.44;2115640;28;20460;-80
2023/12/08 03:42:00;;;;;;;12.85;8.73;;;;;;;0.13;100.00;92279.81;2114258;28;20046;-80
2023/12/08 03:43:01;;;;;;;12.60;8.43;;;;;;;0.18;100.00;92287.34;2114439;28;20035;-78
2023/12/08 03:44:02;;;;;;;13.48;9.05;;;;;;;0.22;100.00;92284.69;2115860;28;20019;-78
2023/12/08 03:45:04;;;;;;;13.27;8.93;;;;;;;0.22;100.00;92282.84;2115702;28;20123;-80
2023/12/08 03:46:07;;;;;;;14.68;9.63;;;;;;;0.20;100.00;92279.06;2106579;28;20445;-76
2023/12/08 03:47:08;;;;;;;14.25;9.27;;;;;;;0.25;100.00;92283.97;2111736;27;20042;-80
2023/12/08 03:48:09;;;;;;;14.90;8.23;;;;;;;0.21;100.00;92288.44;2122496;27;20034;-79
2023/12/08 03:49:13;;;;;;;15.23;9.52;;;;;;;0.18;100.00;92276.81;2122975;27;20047;-82
2023/12/08 03:50:14;;;;;;;12.60;8.88;;;;;;;0.17;100.00;92288.44;2114699;28;20061;-80
2023/12/08 03:51:15;;;;;;;15.32;8.70;;;;;;;0.15;100.00;92292.56;2107622;28;20032;-79
2023/12/08 03:52:16;;;;;;;13.35;8.90;;;;;;;-0.02;100.00;92292.13;2121169;27;20038;-82
2023/12/08 03:53:17;;;;;;;13.13;9.05;;;;;;;-0.07;100.00;92284.59;2119940;27;20027;-78
2023/12/08 03:54:17;;;;;;;14.05;8.90;;;;;;;-0.03;100.00;92290.63;2117442;27;20026;-80
2023/12/08 03:55:18;;;;;;;13.98;9.50;;;;;;;0.01;100.00;92288.00;2113388;27;20143;-79
2023/12/08 03:56:21;;;;;;;15.63;10.35;;;;;;;0.02;100.00;92294.00;2106850;28;20032;-84
2023/12/08 03:57:23;;;;;;;14.57;9.65;;;;;;;-0.09;100.00;92289.47;2107233;28;20051;-79
2023/12/08 03:58:25;;;;;;;14.45;9.82;;;;;;;-0.04;100.00;92291.75;2111994;27;20034;-80
2023/12/08 03:59:26;;;;;;;13.10;9.05;;;;;;;0.04;100.00;92292.50;2098800;28;20052;-78
2023/12/08 04:00:27;;;;;;;14.50;8.85;;;;;;;-0.02;100.00;92294.00;2097473;28;20031;-80
2023/12/08 04:01:28;;;;;;;14.07;9.43;;;;;;;-0.01;100.00;92288.38;2099143;28;20028;-78
2023/12/08 04:02:29;;;;;;;12.32;8.05;;;;;;;0.04;100.00;92295.13;2111684;28;20027;-81
2023/12/08 04:03:30;;;;;;;14.10;9.10;;;;;;;0.01;100.00;92295.91;2106462;28;20028;-79
2023/12/08 04:04:31;;;;;;;13.27;9.18;;;;;;;-0.03;100.00;92290.63;2106333;28;20131;-76
2023/12/08 04:05:32;;;;;;;11.45;8.80;;;;;;;0.10;100.00;92296.31;2106908;28;20034;-78
2023/12/08 04:06:33;;;;;;;14.27;9.32;;;;;;;0.08;100.00;92284.66;2123004;27;20031;-80
2023/12/08 04:07:34;;;;;;;12.95;8.98;;;;;;;0.00;100.00;92299.66;2118316;27;20019;-78
2023/12/08 04:08:35;;;;;;;12.88;8.70;;;;;;;0.12;100.00;92291.41;2119039;27;20037;-81
2023/12/08 04:09:43;;;;;;;12.18;8.25;;;;;;;0.13;100.00;92289.53;2123191;27;20038;-79
2023/12/08 04:10:44;;;;;;;12.43;8.70;;;;;;;0.17;100.00;92287.69;2109936;28;20788;-82
2023/12/08 04:11:49;;;;;;;15.75;9.48;;;;;;;0.11;100.00;92297.06;2100949;28;20432;-79
2023/12/08 04:12:50;;;;;;;14.10;9.23;;;;;;;0.18;100.00;92287.34;2104214;28;20024;-81
2023/12/08 04:13:51;;;;;;;13.82;9.10;;;;;;;0.18;100.00;92284.69;2114331;28;20314;-77
2023/12/08 04:14:52;;;;;;;15.32;8.40;;;;;;;0.16;100.00;92284.31;2115377;28;20027;-81
2023/12/08 04:15:53;;;;;;;14.07;8.80;;;;;;;0.24;100.00;92283.22;2107650;28;20028;-78
2023/12/08 04:16:54;;;;;;;13.93;8.57;;;;;;;0.34;100.00;92286.25;2105860;28;20024;-79
2023/12/08 04:17:55;;;;;;;12.93;9.07;;;;;;;0.32;100.00;92283.25;2111558;27;20409;-82
2023/12/08 04:18:56;;;;;;;13.20;8.95;;;;;;;0.30;100.00;92283.59;2123648;27;20556;-78
2023/12/08 04:19:57;;;;;;;12.82;8.98;;;;;;;0.39;100.00;92276.09;2123636;27;20031;-80
2023/12/08 04:20:58;;;;;;;16.38;9.55;;;;;;;0.16;100.00;92278.31;2117868;27;20023;-77
2023/12/08 04:21:59;;;;;;;12.32;8.90;;;;;;;0.18;100.00;92270.81;2114248;28;20076;-81
2023/12/08 04:23:03;;;;;;;15.07;9.10;;;;;;;0.11;100.00;92276.78;2122368;27;20417;-80
2023/12/08 04:24:04;;;;;;;12.95;9.65;;;;;;;0.16;100.00;92273.03;2121647;27;20026;-79
2023/12/08 04:25:06;;;;;;;12.88;8.73;;;;;;;0.10;100.00;92275.28;2114062;28;20053;-80
2023/12/08 04:26:07;;;;;;;12.48;8.75;;;;;;;0.20;100.00;92266.69;2107500;28;20023;-78
2023/12/08 04:27:08;;;;;;;12.82;8.50;;;;;;;0.20;100.00;92269.31;2107194;28;20020;-79
2023/12/08 04:28:09;;;;;;;12.05;9.07;;;;;;;0.10;100.00;92266.66;2105860;28;20034;-81
2023/12/08 04:29:10;;;;;;;12.80;8.90;;;;;;;0.23;100.00;92268.56;2112719;28;20061;-81
2023/12/08 04:30:11;;;;;;;13.45;8.70;;;;;;;0.18;100.00;92271.56;2109533;28;20024;-80
2023/12/08 04:31:12;;;;;;;13.88;9.57;;;;;;;0.24;100.00;92277.94;2105923;28;20035;-79
2023/12/08 04:32:13;;;;;;;12.07;8.35;;;;;;;0.17;100.00;92269.28;2106769;28;20024;-79
2023/12/08 04:33:14;;;;;;;13.43;8.52;;;;;;;0.32;100.00;92264.84;2109193;28;20016;-81
2023/12/08 04:34:15;;;;;;;11.75;8.73;;;;;;;0.29;100.00;92265.56;2107718;28;20028;-80
2023/12/08 04:35:24;;;;;;;12.80;8.73;;;;;;;0.27;100.00;92270.47;2116349;27;20868;-80
2023/12/08 04:36:25;;;;;;;10.93;7.80;;;;;;;0.11;100.00;92261.03;2121463;27;20042;-77
2023/12/08 04:37:26;;;;;;;12.27;8.38;;;;;;;0.12;100.00;92264.41;2113619;27;20051;-81
2023/12/08 04:38:27;;;;;;;12.45;8.75;;;;;;;0.22;100.00;92267.06;2119345;27;20676;-77
2023/12/08 04:39:28;;;;;;;15.35;10.30;;;;;;;0.33;100.00;92269.72;2117724;27;20027;-81
2023/12/08 04:40:29;;;;;;;10.13;7.95;;;;;;;0.34;100.00;92267.84;2118945;27;20047;-82
2023/12/08 04:41:29;;;;;;;12.13;8.45;;;;;;;0.28;100.00;92264.81;2114294;28;20088;-80
2023/12/08 04:42:30;;;;;;;15.25;9.57;;;;;;;0.24;100.00;92264.06;2104656;28;20027;-78
2023/12/08 04:43:31;;;;;;;13.48;8.85;;;;;;;0.23;100.00;92265.94;2106125;28;20024;-79
2023/12/08 04:44:33;;;;;;;11.73;8.48;;;;;;;0.03;100.00;92262.13;2114416;28;20031;-81
2023/12/08 04:45:34;;;;;;;12.25;8.32;;;;;;;0.13;100.00;92265.91;2114316;28;20038;-78
2023/12/08 04:46:35;;;;;;;11.80;8.43;;;;;;;-0.05;100.00;92255.31;2119037;27;20023;-77